sensor_id;sensor_type;location;lat;lon;timestamp;P1;P2;P0
57798;PMS7003;43626;53.866;30.298;2022-12-20T00:00:00;29.3;24.5;13.8
57798;PMS7003;43626;53.866;30.298;2022-12-20T00:04:34;31.6;26.6;12.6
57798;PMS7003;43626;53.866;30.298;2022-12-20T00:09:42;26.2;20.8;12.6
57798;PMS7003;43626;53.866;30.298;2022-12-20T00:15:00;27.4;22.6;11.8
57798;PMS7003;43626;53.866;30.298;2022-12-20T00:20:10;33;23.2;12.4
57798;PMS7003;43626;53.866;30.298;2022-12-20T00:24:26;33;23.2;12.4
57798;PMS7003;43626;53.866;30.298;2022-12-20T00:30:10;32.4;24;13.2
57798;PMS7003;43626;53.866;30.298;2022-12-20T00:35:00;32.4;24;13.2
57798;PMS7003;43626;53.866;30.298;2022-12-20T00:39:52;35.6;27;15
57798;PMS7003;43626;53.866;30.298;2022-12-20T00:45:10;55.4;42.8;24.4
57798;PMS7003;43626;53.866;30.298;2022-12-20T00:49:42;55.4;42.8;24.4
57798;PMS7003;43626;53.866;30.298;2022-12-20T00:54:58;36.2;29.8;16.4
57798;PMS7003;43626;53.866;30.298;2022-12-20T00:59:44;29.3;22.5;12.5
57798;PMS7003;43626;53.866;30.298;2022-12-20T01:05:08;37.6;30.6;15.2
57798;PMS7003;43626;53.866;30.298;2022-12-20T01:10:06;36.4;27;14.6
57798;PMS7003;43626;53.866;30.298;2022-12-20T01:14:56;38.2;29.2;15.8
57798;PMS7003;43626;53.866;30.298;2022-12-20T01:20:10;38.2;29.8;16
57798;PMS7003;43626;53.866;30.298;2022-12-20T01:25:00;38.2;29.8;16
57798;PMS7003;43626;53.866;30.298;2022-12-20T01:30:10;32.4;22.8;11.8
57798;PMS7003;43626;53.866;30.298;2022-12-20T01:35:12;33;27.8;13
57798;PMS7003;43626;53.866;30.298;2022-12-20T01:39:36;33;27.8;13
57798;PMS7003;43626;53.866;30.298;2022-12-20T01:45:17;65.8;47.6;24.2
57798;PMS7003;43626;53.866;30.298;2022-12-20T01:49:37;65.8;47.6;24.2
57798;PMS7003;43626;53.866;30.298;2022-12-20T01:55:13;44.3;32.8;17
57798;PMS7003;43626;53.866;30.298;2022-12-20T02:00:12;37.2;28.4;14.8
57798;PMS7003;43626;53.866;30.298;2022-12-20T02:04:48;37.2;28.4;14.8
57798;PMS7003;43626;53.866;30.298;2022-12-20T02:10:02;34;27.2;13
57798;PMS7003;43626;53.866;30.298;2022-12-20T02:15:04;32.2;26.6;13.8
57798;PMS7003;43626;53.866;30.298;2022-12-20T02:20:20;30.8;25;13.2
57798;PMS7003;43626;53.866;30.298;2022-12-20T02:25:19;28.6;24.2;13.4
57798;PMS7003;43626;53.866;30.298;2022-12-20T02:30:20;28.6;24.2;13.4
57798;PMS7003;43626;53.866;30.298;2022-12-20T02:34:40;34.4;26.2;14
57798;PMS7003;43626;53.866;30.298;2022-12-20T02:40:02;29.6;21.6;11.4
57798;PMS7003;43626;53.866;30.298;2022-12-20T02:45:14;30.8;23.2;11.6
57798;PMS7003;43626;53.866;30.298;2022-12-20T02:50:15;28.8;20.8;11.6
57798;PMS7003;43626;53.866;30.298;2022-12-20T02:54:26;28.8;20.8;11.6
57798;PMS7003;43626;53.866;30.298;2022-12-20T03:00:04;27.4;21.4;12.6
57798;PMS7003;43626;53.866;30.298;2022-12-20T03:04:50;33;24.5;14
57798;PMS7003;43626;53.866;30.298;2022-12-20T03:10:12;31.8;23.4;11.8
57798;PMS7003;43626;53.866;30.298;2022-12-20T03:15:14;32.2;23;12.6
57798;PMS7003;43626;53.866;30.298;2022-12-20T03:19:46;32.2;23;12.6
57798;PMS7003;43626;53.866;30.298;2022-12-20T03:24:38;30.2;22.4;12.6
57798;PMS7003;43626;53.866;30.298;2022-12-20T03:29:36;25.2;20.4;12.8
57798;PMS7003;43626;53.866;30.298;2022-12-20T03:35:14;30.4;23.8;11.6
57798;PMS7003;43626;53.866;30.298;2022-12-20T03:40:14;28.4;22.4;11.4
57798;PMS7003;43626;53.866;30.298;2022-12-20T03:44:26;28.4;22.4;11.4
57798;PMS7003;43626;53.866;30.298;2022-12-20T03:50:02;28.8;22.4;12.8
57798;PMS7003;43626;53.866;30.298;2022-12-20T03:55:12;24.6;19.2;10.8
57798;PMS7003;43626;53.866;30.298;2022-12-20T04:00:14;24.8;18.5;10.3
57798;PMS7003;43626;53.866;30.298;2022-12-20T04:05:12;25.2;20.4;12
57798;PMS7003;43626;53.866;30.298;2022-12-20T04:09:46;25.2;20.4;12
57798;PMS7003;43626;53.866;30.298;2022-12-20T04:14:26;24.4;19;10.6
57798;PMS7003;43626;53.866;30.298;2022-12-20T04:19:36;24.8;19.6;11
57798;PMS7003;43626;53.866;30.298;2022-12-20T04:25:02;25.2;19.2;11.4
57798;PMS7003;43626;53.866;30.298;2022-12-20T04:30:12;26.8;21.8;13.4
57798;PMS7003;43626;53.866;30.298;2022-12-20T04:34:46;26.8;21.8;13.4
57798;PMS7003;43626;53.866;30.298;2022-12-20T04:40:05;31.8;25.2;14.2
57798;PMS7003;43626;53.866;30.298;2022-12-20T04:45:04;27.6;21.4;11.8
57798;PMS7003;43626;53.866;30.298;2022-12-20T04:50:12;31.6;21.6;11.6
57798;PMS7003;43626;53.866;30.298;2022-12-20T04:54:36;31.6;21.6;11.6
57798;PMS7003;43626;53.866;30.298;2022-12-20T04:59:48;30;24;12
57798;PMS7003;43626;53.866;30.298;2022-12-20T05:04:52;30.5;22;12.3
57798;PMS7003;43626;53.866;30.298;2022-12-20T05:09:38;29.4;23.6;12.2
57798;PMS7003;43626;53.866;30.298;2022-12-20T05:15:12;31.6;24.2;12.6
57798;PMS7003;43626;53.866;30.298;2022-12-20T05:19:46;31.6;24.2;12.6
57798;PMS7003;43626;53.866;30.298;2022-12-20T05:24:36;26.2;21;11.8
57798;PMS7003;43626;53.866;30.298;2022-12-20T05:30:02;29.2;22.4;12.2
57798;PMS7003;43626;53.866;30.298;2022-12-20T05:35:02;33.2;25.4;14
57798;PMS7003;43626;53.866;30.298;2022-12-20T05:40:12;32.8;26.2;14.8
57798;PMS7003;43626;53.866;30.298;2022-12-20T05:44:36;32.8;26.2;14.8
57798;PMS7003;43626;53.866;30.298;2022-12-20T05:49:48;38;27.8;16
57798;PMS7003;43626;53.866;30.298;2022-12-20T05:54:48;29;23.6;14.6
57798;PMS7003;43626;53.866;30.298;2022-12-20T05:59:34;33.8;24.6;14.6
57798;PMS7003;43626;53.866;30.298;2022-12-20T06:05:14;39.2;30.4;17.8
57798;PMS7003;43626;53.866;30.298;2022-12-20T06:09:46;39.2;30.4;17.8
57798;PMS7003;43626;53.866;30.298;2022-12-20T06:14:58;38;30.4;16.4
57798;PMS7003;43626;53.866;30.298;2022-12-20T06:20:02;51.2;40.6;23
57798;PMS7003;43626;53.866;30.298;2022-12-20T06:25:02;69.6;51.6;28.8
57798;PMS7003;43626;53.866;30.298;2022-12-20T06:30:12;72.2;54;32
57798;PMS7003;43626;53.866;30.298;2022-12-20T06:34:58;72.2;54;32
57798;PMS7003;43626;53.866;30.298;2022-12-20T06:39:36;71.2;54.6;32.2
57798;PMS7003;43626;53.866;30.298;2022-12-20T06:44:52;75.6;58.8;35.6
57798;PMS7003;43626;53.866;30.298;2022-12-20T06:49:26;71.6;54.6;32.6
57798;PMS7003;43626;53.866;30.298;2022-12-20T06:55:12;67;50.8;31
57798;PMS7003;43626;53.866;30.298;2022-12-20T06:59:36;67;50.8;31
57798;PMS7003;43626;53.866;30.298;2022-12-20T07:04:36;76.3;59.5;37.5
57798;PMS7003;43626;53.866;30.298;2022-12-20T07:10:02;73.4;57.4;35.4
57798;PMS7003;43626;53.866;30.298;2022-12-20T07:15:04;75.2;58.6;36.4
57798;PMS7003;43626;53.866;30.298;2022-12-20T07:20:12;62.6;49;30.2
57798;PMS7003;43626;53.866;30.298;2022-12-20T07:24:26;62.6;49;30.2
57798;PMS7003;43626;53.866;30.298;2022-12-20T07:29:46;51.4;42;27
57798;PMS7003;43626;53.866;30.298;2022-12-20T07:34:52;53.8;43;29.2
57798;PMS7003;43626;53.866;30.298;2022-12-20T07:39:38;42;36.6;23.4
57798;PMS7003;43626;53.866;30.298;2022-12-20T07:45:14;35.4;29.4;19.6
57798;PMS7003;43626;53.866;30.298;2022-12-20T07:50:00;35.4;29.4;19.6
57798;PMS7003;43626;53.866;30.298;2022-12-20T07:54:37;30.2;25.6;15.8
57798;PMS7003;43626;53.866;30.298;2022-12-20T08:00:04;35.8;29;18.2
57798;PMS7003;43626;53.866;30.298;2022-12-20T08:05:04;41.2;33.8;21.6
57798;PMS7003;43626;53.866;30.298;2022-12-20T08:10:08;35;30;19
57798;PMS7003;43626;53.866;30.298;2022-12-20T08:14:26;48.4;39;25.8
57798;PMS7003;43626;53.866;30.298;2022-12-20T08:20:00;51.8;42.2;27.2
57798;PMS7003;43626;53.866;30.298;2022-12-20T08:25:14;33.8;26.6;17
57798;PMS7003;43626;53.866;30.298;2022-12-20T08:29:36;33.8;26.6;17
57798;PMS7003;43626;53.866;30.298;2022-12-20T08:34:26;31.6;25.6;15
57798;PMS7003;43626;53.866;30.298;2022-12-20T08:40:00;31.4;24.4;15
57798;PMS7003;43626;53.866;30.298;2022-12-20T08:45:10;29.2;23.4;13.8
57798;PMS7003;43626;53.866;30.298;2022-12-20T08:49:58;29.2;23.4;13.8
57798;PMS7003;43626;53.866;30.298;2022-12-20T08:54:58;21.8;18.4;11.4
57798;PMS7003;43626;53.866;30.298;2022-12-20T09:00:02;23;20.6;13
57798;PMS7003;43626;53.866;30.298;2022-12-20T09:04:36;27;21.8;12
57798;PMS7003;43626;53.866;30.298;2022-12-20T09:10:12;27;23.2;15
57798;PMS7003;43626;53.866;30.298;2022-12-20T09:15:12;35.2;29.4;17
57798;PMS7003;43626;53.866;30.298;2022-12-20T09:19:36;35.2;29.4;17
57798;PMS7003;43626;53.866;30.298;2022-12-20T09:24:44;39.8;32;20.2
57798;PMS7003;43626;53.866;30.298;2022-12-20T09:30:04;36.4;31.2;19.4
57798;PMS7003;43626;53.866;30.298;2022-12-20T09:35:12;45.4;36.2;22
57798;PMS7003;43626;53.866;30.298;2022-12-20T09:40:13;47.2;37.2;20.4
57798;PMS7003;43626;53.866;30.298;2022-12-20T09:44:48;47.2;37.2;20.4
57798;PMS7003;43626;53.866;30.298;2022-12-20T09:50:02;38.8;30.6;19.8
57798;PMS7003;43626;53.866;30.298;2022-12-20T09:54:41;40.6;34;21
57798;PMS7003;43626;53.866;30.298;2022-12-20T10:00:15;42.2;36;22.4
57798;PMS7003;43626;53.866;30.298;2022-12-20T10:05:12;41.5;36;23
57798;PMS7003;43626;53.866;30.298;2022-12-20T10:09:41;41.5;36;23
57798;PMS7003;43626;53.866;30.298;2022-12-20T10:14:52;39.2;32.6;19.8
57798;PMS7003;43626;53.866;30.298;2022-12-20T10:19:53;37;30.4;18.2
57798;PMS7003;43626;53.866;30.298;2022-12-20T10:25:15;30.6;25.2;15.8
57798;PMS7003;43626;53.866;30.298;2022-12-20T10:30:15;31.4;28.2;17
57798;PMS7003;43626;53.866;30.298;2022-12-20T10:35:00;31.4;28.2;17
57798;PMS7003;43626;53.866;30.298;2022-12-20T10:40:00;57.4;44.4;27.4
57798;PMS7003;43626;53.866;30.298;2022-12-20T10:44:26;55.4;43.8;25.2
57798;PMS7003;43626;53.866;30.298;2022-12-20T10:50:13;36.8;29.8;18.2
57798;PMS7003;43626;53.866;30.298;2022-12-20T10:55:31;44;37;21.4
57798;PMS7003;43626;53.866;30.298;2022-12-20T10:59:48;44;37;21.4
57798;PMS7003;43626;53.866;30.298;2022-12-20T11:04:55;37;29;18
57798;PMS7003;43626;53.866;30.298;2022-12-20T11:09:52;32.5;28;16.8
57798;PMS7003;43626;53.866;30.298;2022-12-20T11:15:17;38;31.2;18.2
57798;PMS7003;43626;53.866;30.298;2022-12-20T11:20:19;44.4;36.4;21
57798;PMS7003;43626;53.866;30.298;2022-12-20T11:25:01;44.4;36.4;21
57798;PMS7003;43626;53.866;30.298;2022-12-20T11:30:02;34.2;27.2;16.4
57798;PMS7003;43626;53.866;30.298;2022-12-20T11:34:40;25.6;19;12.4
57798;PMS7003;43626;53.866;30.298;2022-12-20T11:40:14;24.8;19.8;11.6
57798;PMS7003;43626;53.866;30.298;2022-12-20T11:45:13;32.8;25.8;14.8
57798;PMS7003;43626;53.866;30.298;2022-12-20T11:49:41;32.8;25.8;14.8
57798;PMS7003;43626;53.866;30.298;2022-12-20T11:54:45;36;29;17.4
57798;PMS7003;43626;53.866;30.298;2022-12-20T11:59:37;52.8;39;22.6
57798;PMS7003;43626;53.866;30.298;2022-12-20T12:05:14;44.3;35.5;20.3
57798;PMS7003;43626;53.866;30.298;2022-12-20T12:10:12;35.6;30.2;18
57798;PMS7003;43626;53.866;30.298;2022-12-20T12:15:17;43.8;35.4;22
57798;PMS7003;43626;53.866;30.298;2022-12-20T12:20:08;43.8;35.4;22
57798;PMS7003;43626;53.866;30.298;2022-12-20T12:24:26;43.2;34.6;20.4
57798;PMS7003;43626;53.866;30.298;2022-12-20T12:30:00;35.6;27.2;16.6
57798;PMS7003;43626;53.866;30.298;2022-12-20T12:35:17;32.6;24.6;15.2
57798;PMS7003;43626;53.866;30.298;2022-12-20T12:39:37;32.6;24.6;15.2
57798;PMS7003;43626;53.866;30.298;2022-12-20T12:44:58;38.8;30.4;17.4
57798;PMS7003;43626;53.866;30.298;2022-12-20T12:49:45;30.6;27.4;14.8
57798;PMS7003;43626;53.866;30.298;2022-12-20T12:59:41;30.6;27;16
57798;PMS7003;43626;53.866;30.298;2022-12-20T13:04:57;25.6;23.6;14
57798;PMS7003;43626;53.866;30.298;2022-12-20T13:09:56;25.2;21.8;12.6
57798;PMS7003;43626;53.866;30.298;2022-12-20T13:14:58;25.3;20.8;14.3
57798;PMS7003;43626;53.866;30.298;2022-12-20T13:20:14;46.4;34.2;18.6
57798;PMS7003;43626;53.866;30.298;2022-12-20T13:24:52;46.4;34.2;18.6
57798;PMS7003;43626;53.866;30.298;2022-12-20T13:29:27;51.2;40.2;22.2
57798;PMS7003;43626;53.866;30.298;2022-12-20T13:34:52;60.2;43.8;24.2
57798;PMS7003;43626;53.866;30.298;2022-12-20T13:39:46;37.2;31.4;18.2
57798;PMS7003;43626;53.866;30.298;2022-12-20T13:45:09;32.4;27.6;17
57798;PMS7003;43626;53.866;30.298;2022-12-20T13:49:26;24.4;22;13
57798;PMS7003;43626;53.866;30.298;2022-12-20T13:55:14;34.6;29.6;17.4
57798;PMS7003;43626;53.866;30.298;2022-12-20T14:00:02;34.6;29.6;17.4
57798;PMS7003;43626;53.866;30.298;2022-12-20T14:04:27;41.2;34.4;20.4
57798;PMS7003;43626;53.866;30.298;2022-12-20T14:10:15;28.4;24.8;15.2
57798;PMS7003;43626;53.866;30.298;2022-12-20T14:14:56;26.5;23.5;15.3
57798;PMS7003;43626;53.866;30.298;2022-12-20T14:19:26;28;22.6;13.6
57798;PMS7003;43626;53.866;30.298;2022-12-20T14:24:26;27.6;23.4;14.2
57798;PMS7003;43626;53.866;30.298;2022-12-20T14:30:00;24.8;22.2;13.4
57798;PMS7003;43626;53.866;30.298;2022-12-20T14:35:17;36.4;28.2;16.8
57798;PMS7003;43626;53.866;30.298;2022-12-20T14:39:53;36.4;28.2;16.8
57798;PMS7003;43626;53.866;30.298;2022-12-20T14:45:02;29.2;25.2;14.8
57798;PMS7003;43626;53.866;30.298;2022-12-20T14:50:01;33.6;27.8;16.2
57798;PMS7003;43626;53.866;30.298;2022-12-20T14:54:42;38.6;30.2;17.2
57798;PMS7003;43626;53.866;30.298;2022-12-20T15:00:14;48.4;38.2;22.2
57798;PMS7003;43626;53.866;30.298;2022-12-20T15:04:56;48.4;38.2;22.2
57798;PMS7003;43626;53.866;30.298;2022-12-20T15:09:48;54.2;42.2;25.6
57798;PMS7003;43626;53.866;30.298;2022-12-20T15:14:48;66.8;49;28.8
57798;PMS7003;43626;53.866;30.298;2022-12-20T15:19:48;58.2;44.4;27
57798;PMS7003;43626;53.866;30.298;2022-12-20T15:25:13;38.8;33;21
57798;PMS7003;43626;53.866;30.298;2022-12-20T15:29:26;38.8;33;21
57798;PMS7003;43626;53.866;30.298;2022-12-20T15:34:58;45.2;35.8;21
57798;PMS7003;43626;53.866;30.298;2022-12-20T15:40:02;41.4;34.2;20.4
57798;PMS7003;43626;53.866;30.298;2022-12-20T15:44:36;41.6;34.4;21
57798;PMS7003;43626;53.866;30.298;2022-12-20T15:50:12;34.8;29;19
57798;PMS7003;43626;53.866;30.298;2022-12-20T15:54:56;34.8;29;19
57798;PMS7003;43626;53.866;30.298;2022-12-20T15:59:36;35.2;28.2;18
57798;PMS7003;43626;53.866;30.298;2022-12-20T16:05:00;33;27.8;17
57798;PMS7003;43626;53.866;30.298;2022-12-20T16:09:48;30.4;24.8;15.6
57798;PMS7003;43626;53.866;30.298;2022-12-20T16:15:17;34.8;28.6;18.2
57798;PMS7003;43626;53.866;30.298;2022-12-20T16:19:26;34.8;28.6;18.2
57798;PMS7003;43626;53.866;30.298;2022-12-20T16:24:46;34.8;27.2;16.2
57798;PMS7003;43626;53.866;30.298;2022-12-20T16:30:02;33.2;28.8;17
57798;PMS7003;43626;53.866;30.298;2022-12-20T16:34:26;34.2;29;18.4
57798;PMS7003;43626;53.866;30.298;2022-12-20T16:40:12;40.6;33.6;19.8
57798;PMS7003;43626;53.866;30.298;2022-12-20T16:44:58;40.6;33.6;19.8
57798;PMS7003;43626;53.866;30.298;2022-12-20T16:49:50;49;37;23
57798;PMS7003;43626;53.866;30.298;2022-12-20T16:54:48;48.8;39.4;23.4
57798;PMS7003;43626;53.866;30.298;2022-12-20T16:59:50;48.6;38.2;25
57798;PMS7003;43626;53.866;30.298;2022-12-20T17:05:17;47.6;37;23
57798;PMS7003;43626;53.866;30.298;2022-12-20T17:09:46;47.6;37;23
57798;PMS7003;43626;53.866;30.298;2022-12-20T17:14:58;40.3;34;20.5
57798;PMS7003;43626;53.866;30.298;2022-12-20T17:19:52;39.4;34.4;21.6
57798;PMS7003;43626;53.866;30.298;2022-12-20T17:24:36;40;32.2;19.6
57798;PMS7003;43626;53.866;30.298;2022-12-20T17:29:58;32.8;28.2;17.8
57798;PMS7003;43626;53.866;30.298;2022-12-20T17:34:58;33.4;30.2;17.2
57798;PMS7003;43626;53.866;30.298;2022-12-20T17:40:00;29.6;25.8;16.6
57798;PMS7003;43626;53.866;30.298;2022-12-20T17:44:48;27.4;22.2;14.2
57798;PMS7003;43626;53.866;30.298;2022-12-20T17:50:10;27.2;22.8;14
57798;PMS7003;43626;53.866;30.298;2022-12-20T17:55:13;24.2;21.6;13.6
57798;PMS7003;43626;53.866;30.298;2022-12-20T17:59:36;24.2;21.6;13.6
57798;PMS7003;43626;53.866;30.298;2022-12-20T18:04:36;38.4;29.8;17.6
57798;PMS7003;43626;53.866;30.298;2022-12-20T18:09:48;51.2;39.2;23.6
57798;PMS7003;43626;53.866;30.298;2022-12-20T18:15:10;51;38.5;23.8
57798;PMS7003;43626;53.866;30.298;2022-12-20T18:19:58;51;38.5;23.8
57798;PMS7003;43626;53.866;30.298;2022-12-20T18:24:58;44.4;37.2;22
57798;PMS7003;43626;53.866;30.298;2022-12-20T18:29:48;42.8;34.8;21.2
57798;PMS7003;43626;53.866;30.298;2022-12-20T18:34:46;34.4;27.4;17.2
57798;PMS7003;43626;53.866;30.298;2022-12-20T18:40:08;27.8;24.6;15.4
57798;PMS7003;43626;53.866;30.298;2022-12-20T18:45:09;27;23.8;15
57798;PMS7003;43626;53.866;30.298;2022-12-20T18:49:48;29.8;26.6;16
57798;PMS7003;43626;53.866;30.298;2022-12-20T18:54:36;36.6;31.6;20.2
57798;PMS7003;43626;53.866;30.298;2022-12-20T18:59:26;41.4;34.6;21.2
57798;PMS7003;43626;53.866;30.298;2022-12-20T19:04:26;34;28;17.6
57798;PMS7003;43626;53.866;30.298;2022-12-20T19:09:58;30;25.2;15.8
57798;PMS7003;43626;53.866;30.298;2022-12-20T19:14:58;25.2;23.2;15
57798;PMS7003;43626;53.866;30.298;2022-12-20T19:19:48;26;21.3;13
57798;PMS7003;43626;53.866;30.298;2022-12-20T19:24:46;26;23;13.8
57798;PMS7003;43626;53.866;30.298;2022-12-20T19:30:09;26.2;20.6;13.2
57798;PMS7003;43626;53.866;30.298;2022-12-20T19:35:08;24;20;13.2
57798;PMS7003;43626;53.866;30.298;2022-12-20T19:39:36;26;21.8;13.6
57798;PMS7003;43626;53.866;30.298;2022-12-20T19:44:48;29.8;24;14.2
57798;PMS7003;43626;53.866;30.298;2022-12-20T19:49:26;25.6;22;12
57798;PMS7003;43626;53.866;30.298;2022-12-20T19:54:48;23;20.4;13.2
57798;PMS7003;43626;53.866;30.298;2022-12-20T19:59:56;25;21.8;14.6
57798;PMS7003;43626;53.866;30.298;2022-12-20T20:05:10;30.2;23.8;14.4
57798;PMS7003;43626;53.866;30.298;2022-12-20T20:09:58;30.2;23.8;14.4
57798;PMS7003;43626;53.866;30.298;2022-12-20T20:14:46;27.8;23.4;14.4
57798;PMS7003;43626;53.866;30.298;2022-12-20T20:20:08;30;24;16
57798;PMS7003;43626;53.866;30.298;2022-12-20T20:25:10;33.8;29.4;15.8
57798;PMS7003;43626;53.866;30.298;2022-12-20T20:29:26;33.8;29.4;15.8
57798;PMS7003;43626;53.866;30.298;2022-12-20T20:34:50;43.8;32.6;18.4
57798;PMS7003;43626;53.866;30.298;2022-12-20T20:39:46;44.2;35.4;18.8
57798;PMS7003;43626;53.866;30.298;2022-12-20T20:44:48;36.8;31.8;18.6
57798;PMS7003;43626;53.866;30.298;2022-12-20T20:49:58;29.2;24.8;15.6
57798;PMS7003;43626;53.866;30.298;2022-12-20T20:55:10;36.4;29.8;16.8
57798;PMS7003;43626;53.866;30.298;2022-12-20T20:59:52;36.4;29.8;16.8
57798;PMS7003;43626;53.866;30.298;2022-12-20T21:04:36;37.8;29.4;17.6
57798;PMS7003;43626;53.866;30.298;2022-12-20T21:10:08;33.6;27.6;15.8
57798;PMS7003;43626;53.866;30.298;2022-12-20T21:15:00;31.4;26.8;16.8
57798;PMS7003;43626;53.866;30.298;2022-12-20T21:19:26;33.5;26.8;16.5
57798;PMS7003;43626;53.866;30.298;2022-12-20T21:24:48;32;26.6;15.8
57798;PMS7003;43626;53.866;30.298;2022-12-20T21:29:50;36.6;29.8;17.2
57798;PMS7003;43626;53.866;30.298;2022-12-20T21:34:48;44.4;34.2;20.8
57798;PMS7003;43626;53.866;30.298;2022-12-20T21:40:09;45.6;37.6;23.2
57798;PMS7003;43626;53.866;30.298;2022-12-20T21:45:09;38;31.4;18.8
57798;PMS7003;43626;53.866;30.298;2022-12-20T21:49:46;38.8;32.2;18.2
57798;PMS7003;43626;53.866;30.298;2022-12-20T21:54:26;48.6;37.4;22
57798;PMS7003;43626;53.866;30.298;2022-12-20T21:59:56;47.6;36.6;21.8
57798;PMS7003;43626;53.866;30.298;2022-12-20T22:04:42;37.6;31;18.8
57798;PMS7003;43626;53.866;30.298;2022-12-20T22:09:34;40.6;34.2;20.8
57798;PMS7003;43626;53.866;30.298;2022-12-20T22:14:46;40.2;32;18.2
57798;PMS7003;43626;53.866;30.298;2022-12-20T22:19:42;36.8;31;17.5
57798;PMS7003;43626;53.866;30.298;2022-12-20T22:24:26;36.6;30.2;17.8
57798;PMS7003;43626;53.866;30.298;2022-12-20T22:30:09;40.4;32.2;17.8
57798;PMS7003;43626;53.866;30.298;2022-12-20T22:35:08;40;33.6;18.8
57798;PMS7003;43626;53.866;30.298;2022-12-20T22:39:34;48;36.2;19.2
57798;PMS7003;43626;53.866;30.298;2022-12-20T22:44:32;50.8;38.8;22.6
57798;PMS7003;43626;53.866;30.298;2022-12-20T22:49:36;47.4;36.8;20.6
57798;PMS7003;43626;53.866;30.298;2022-12-20T22:54:58;42.8;34.6;19
57798;PMS7003;43626;53.866;30.298;2022-12-20T22:59:32;39.6;33.2;18
57798;PMS7003;43626;53.866;30.298;2022-12-20T23:04:26;40.6;33.6;19
57798;PMS7003;43626;53.866;30.298;2022-12-20T23:09:48;40.2;32.8;17.6
57798;PMS7003;43626;53.866;30.298;2022-12-20T23:14:34;38.6;31.8;17.8
57798;PMS7003;43626;53.866;30.298;2022-12-20T23:20:11;42.5;33;18
57798;PMS7003;43626;53.866;30.298;2022-12-20T23:25:07;42.5;33;18
57798;PMS7003;43626;53.866;30.298;2022-12-20T23:29:36;44.6;35.2;19.6
57798;PMS7003;43626;53.866;30.298;2022-12-20T23:34:26;46.6;35.2;19.4
57798;PMS7003;43626;53.866;30.298;2022-12-20T23:39:56;50.4;36.8;21
57798;PMS7003;43626;53.866;30.298;2022-12-20T23:44:56;47;36.4;20.6
57798;PMS7003;43626;53.866;30.298;2022-12-20T23:49:26;47.6;35.4;19.4
57798;PMS7003;43626;53.866;30.298;2022-12-20T23:54:46;47.4;36.4;20.2
57798;PMS7003;43626;53.866;30.298;2022-12-20T23:59:58;48.2;36.8;20.6
